sensor_id;sensor_type;location;lat;lon;timestamp;pressure;altitude;pressure_sealevel;temperature;humidity
65754;BME280;69207;47.502;18.940;2023-05-24T00:00:43;97845.41;;;14.89;100.00
65754;BME280;69207;47.502;18.940;2023-05-24T00:01:47;97844.06;;;14.90;100.00
65754;BME280;69207;47.502;18.940;2023-05-24T00:02:50;97842.00;;;14.90;100.00
65754;BME280;69207;47.502;18.940;2023-05-24T00:03:54;97844.78;;;14.90;100.00
65754;BME280;69207;47.502;18.940;2023-05-24T00:05:03;97838.53;;;14.90;100.00
65754;BME280;69207;47.502;18.940;2023-05-24T00:06:07;97833.19;;;14.94;100.00
65754;BME280;69207;47.502;18.940;2023-05-24T00:07:10;97838.09;;;14.95;100.00
65754;BME280;69207;47.502;18.940;2023-05-24T00:08:13;97838.09;;;14.95;100.00
65754;BME280;69207;47.502;18.940;2023-05-24T00:09:18;97826.94;;;14.93;100.00
65754;BME280;69207;47.502;18.940;2023-05-24T00:10:21;97832.47;;;14.93;100.00
65754;BME280;69207;47.502;18.940;2023-05-24T00:11:24;97833.91;;;14.94;100.00
65754;BME280;69207;47.502;18.940;2023-05-24T00:12:29;97838.09;;;14.95;100.00
65754;BME280;69207;47.502;18.940;2023-05-24T00:13:32;97840.16;;;14.95;100.00
65754;BME280;69207;47.502;18.940;2023-05-24T00:14:35;97835.84;;;14.92;100.00
65754;BME280;69207;47.502;18.940;2023-05-24T00:15:39;97835.84;;;14.92;100.00
65754;BME280;69207;47.502;18.940;2023-05-24T00:16:42;97838.00;;;14.93;100.00
65754;BME280;69207;47.502;18.940;2023-05-24T00:17:45;97837.37;;;14.95;100.00
65754;BME280;69207;47.502;18.940;2023-05-24T00:18:49;97827.66;;;14.94;100.00
65754;BME280;69207;47.502;18.940;2023-05-24T00:19:52;97840.16;;;14.95;100.00
65754;BME280;69207;47.502;18.940;2023-05-24T00:20:56;97842.28;;;14.96;100.00
65754;BME280;69207;47.502;18.940;2023-05-24T00:22:00;97835.34;;;14.95;100.00
65754;BME280;69207;47.502;18.940;2023-05-24T00:23:03;97832.56;;;14.95;100.00
65754;BME280;69207;47.502;18.940;2023-05-24T00:24:06;97835.34;;;14.95;100.00
65754;BME280;69207;47.502;18.940;2023-05-24T00:25:09;97830.59;;;14.98;100.00
65754;BME280;69207;47.502;18.940;2023-05-24T00:26:12;97830.09;;;15.01;100.00
65754;BME280;69207;47.502;18.940;2023-05-24T00:27:15;97825.91;;;15.00;100.00
65754;BME280;69207;47.502;18.940;2023-05-24T00:28:18;97825.91;;;15.00;100.00
65754;BME280;69207;47.502;18.940;2023-05-24T00:29:21;97829.25;;;14.99;100.00
65754;BME280;69207;47.502;18.940;2023-05-24T00:30:24;97820.78;;;14.95;100.00
65754;BME280;69207;47.502;18.940;2023-05-24T00:31:27;97823.03;;;14.98;100.00
65754;BME280;69207;47.502;18.940;2023-05-24T00:32:30;97823.13;;;15.00;100.00
65754;BME280;69207;47.502;18.940;2023-05-24T00:33:33;97817.41;;;14.96;100.00
65754;BME280;69207;47.502;18.940;2023-05-24T00:34:36;97821.41;;;14.93;100.00
65754;BME280;69207;47.502;18.940;2023-05-24T00:35:39;97821.31;;;14.91;100.00
65754;BME280;69207;47.502;18.940;2023-05-24T00:36:42;97821.94;;;14.90;100.00
65754;BME280;69207;47.502;18.940;2023-05-24T00:37:45;97823.28;;;14.89;100.00
65754;BME280;69207;47.502;18.940;2023-05-24T00:38:49;97818.47;;;14.89;100.00
65754;BME280;69207;47.502;18.940;2023-05-24T00:39:54;97819.06;;;14.88;100.00
65754;BME280;69207;47.502;18.940;2023-05-24T00:40:57;97827.13;;;14.97;100.00
65754;BME280;69207;47.502;18.940;2023-05-24T00:42:02;97822.03;;;14.92;100.00
65754;BME280;69207;47.502;18.940;2023-05-24T00:43:06;97817.03;;;14.88;100.00
65754;BME280;69207;47.502;18.940;2023-05-24T00:44:09;97816.91;;;14.86;100.00
65754;BME280;69207;47.502;18.940;2023-05-24T00:45:12;97820.41;;;14.87;100.00
65754;BME280;69207;47.502;18.940;2023-05-24T00:46:28;97819.59;;;14.84;100.00
65754;BME280;69207;47.502;18.940;2023-05-24T00:47:32;97817.53;;;14.85;100.00
65754;BME280;69207;47.502;18.940;2023-05-24T00:48:35;97818.88;;;14.84;100.00
65754;BME280;69207;47.502;18.940;2023-05-24T00:49:39;97825.12;;;14.84;100.00
65754;BME280;69207;47.502;18.940;2023-05-24T00:50:42;97825.75;;;14.83;100.00
65754;BME280;69207;47.502;18.940;2023-05-24T00:51:45;97815.28;;;14.81;100.00
65754;BME280;69207;47.502;18.940;2023-05-24T00:52:50;97817.34;;;14.81;100.00
65754;BME280;69207;47.502;18.940;2023-05-24T00:53:53;97819.41;;;14.80;100.00
65754;BME280;69207;47.502;18.940;2023-05-24T00:54:56;97820.03;;;14.78;100.00
65754;BME280;69207;47.502;18.940;2023-05-24T00:56:00;97821.37;;;14.77;100.00
65754;BME280;69207;47.502;18.940;2023-05-24T00:57:04;97822.78;;;14.78;100.00
65754;BME280;69207;47.502;18.940;2023-05-24T00:58:07;97821.44;;;14.79;100.00
65754;BME280;69207;47.502;18.940;2023-05-24T00:59:11;97817.97;;;14.79;100.00
65754;BME280;69207;47.502;18.940;2023-05-24T01:00:14;97824.13;;;14.77;100.00
65754;BME280;69207;47.502;18.940;2023-05-24T01:01:17;97826.19;;;14.77;100.00
65754;BME280;69207;47.502;18.940;2023-05-24T01:02:20;97823.41;;;14.77;100.00
65754;BME280;69207;47.502;18.940;2023-05-24T01:03:24;97822.88;;;14.81;100.00
65754;BME280;69207;47.502;18.940;2023-05-24T01:04:31;97829.84;;;14.82;100.00
65754;BME280;69207;47.502;18.940;2023-05-24T01:05:34;97820.81;;;14.81;100.00
65754;BME280;69207;47.502;18.940;2023-05-24T01:07:33;97825.00;;;14.82;100.00
65754;BME280;69207;47.502;18.940;2023-05-24T01:08:21;97826.34;;;14.81;100.00
65754;BME280;69207;47.502;18.940;2023-05-24T01:10:59;97821.03;;;14.85;100.00
65754;BME280;69207;47.502;18.940;2023-05-24T01:12:27;97819.59;;;14.84;100.00
65754;BME280;69207;47.502;18.940;2023-05-24T01:14:57;97823.50;;;14.79;100.00
65754;BME280;69207;47.502;18.940;2023-05-24T01:16:12;97824.22;;;14.79;100.00
65754;BME280;69207;47.502;18.940;2023-05-24T01:17:28;97822.78;;;14.78;100.00
65754;BME280;69207;47.502;18.940;2023-05-24T01:18:42;97825.00;;;14.82;100.00
65754;BME280;69207;47.502;18.940;2023-05-24T01:19:53;97825.84;;;14.85;100.00
65754;BME280;69207;47.502;18.940;2023-05-24T01:22:47;97821.75;;;14.86;100.00
65754;BME280;69207;47.502;18.940;2023-05-24T01:24:21;97827.91;;;14.84;100.00
65754;BME280;69207;47.502;18.940;2023-05-24T01:27:07;97816.91;;;14.86;100.00
65754;BME280;69207;47.502;18.940;2023-05-24T01:28:12;97821.22;;;14.89;100.00
65754;BME280;69207;47.502;18.940;2023-05-24T01:29:15;97821.22;;;14.89;100.00
65754;BME280;69207;47.502;18.940;2023-05-24T01:30:19;97822.56;;;14.88;100.00
65754;BME280;69207;47.502;18.940;2023-05-24T01:31:23;97821.22;;;14.89;100.00
65754;BME280;69207;47.502;18.940;2023-05-24T01:32:26;97811.59;;;14.90;100.00
65754;BME280;69207;47.502;18.940;2023-05-24T01:33:31;97813.22;;;14.95;100.00
65754;BME280;69207;47.502;18.940;2023-05-24T01:34:34;97809.81;;;14.97;100.00
65754;BME280;69207;47.502;18.940;2023-05-24T01:35:37;97811.16;;;14.96;100.00
65754;BME280;69207;47.502;18.940;2023-05-24T01:36:44;97802.78;;;14.94;100.00
65754;BME280;69207;47.502;18.940;2023-05-24T01:37:47;97801.50;;;14.97;100.00
65754;BME280;69207;47.502;18.940;2023-05-24T01:38:50;97801.44;;;14.95;100.00
65754;BME280;69207;47.502;18.940;2023-05-24T01:39:54;97805.44;;;14.92;100.00
65754;BME280;69207;47.502;18.940;2023-05-24T01:41:03;97803.28;;;14.90;100.00
65754;BME280;69207;47.502;18.940;2023-05-24T01:42:20;97801.88;;;14.89;100.00
65754;BME280;69207;47.502;18.940;2023-05-24T01:43:32;97800.31;;;14.86;100.00
65754;BME280;69207;47.502;18.940;2023-05-24T01:45:16;97799.59;;;14.86;100.00
65754;BME280;69207;47.502;18.940;2023-05-24T01:46:36;97812.81;;;14.87;100.00
65754;BME280;69207;47.502;18.940;2023-05-24T01:49:08;97806.47;;;14.85;100.00
65754;BME280;69207;47.502;18.940;2023-05-24T01:50:33;97801.56;;;14.83;100.00
65754;BME280;69207;47.502;18.940;2023-05-24T01:51:50;97805.06;;;14.84;100.00
65754;BME280;69207;47.502;18.940;2023-05-24T01:52:59;97798.91;;;14.85;100.00
65754;BME280;69207;47.502;18.940;2023-05-24T01:54:05;97807.81;;;14.84;100.00
65754;BME280;69207;47.502;18.940;2023-05-24T01:55:12;97809.06;;;14.81;100.00
65754;BME280;69207;47.502;18.940;2023-05-24T01:56:18;97810.59;;;14.84;100.00
65754;BME280;69207;47.502;18.940;2023-05-24T01:57:23;97806.41;;;14.83;100.00
65754;BME280;69207;47.502;18.940;2023-05-24T01:58:29;97796.56;;;14.79;100.00
65754;BME280;69207;47.502;18.940;2023-05-24T01:59:34;97803.31;;;14.76;100.00
65754;BME280;69207;47.502;18.940;2023-05-24T02:00:39;97800.47;;;14.74;100.00
65754;BME280;69207;47.502;18.940;2023-05-24T02:01:43;97794.22;;;14.74;100.00
65754;BME280;69207;47.502;18.940;2023-05-24T02:02:46;97801.09;;;14.73;100.00
65754;BME280;69207;47.502;18.940;2023-05-24T02:03:49;97798.22;;;14.71;100.00
65754;BME280;69207;47.502;18.940;2023-05-24T02:04:53;97803.66;;;14.69;100.00
65754;BME280;69207;47.502;18.940;2023-05-24T02:05:56;97798.63;;;14.65;100.00
65754;BME280;69207;47.502;18.940;2023-05-24T02:06:59;97796.50;;;14.64;100.00
65754;BME280;69207;47.502;18.940;2023-05-24T02:08:02;97805.50;;;14.64;100.00
65754;BME280;69207;47.502;18.940;2023-05-24T02:09:05;97806.84;;;14.63;100.00
65754;BME280;69207;47.502;18.940;2023-05-24T02:10:08;97804.72;;;14.62;100.00
65754;BME280;69207;47.502;18.940;2023-05-24T02:11:11;97810.25;;;14.62;100.00
65754;BME280;69207;47.502;18.940;2023-05-24T02:12:14;97803.28;;;14.61;100.00
65754;BME280;69207;47.502;18.940;2023-05-24T02:13:17;97811.94;;;14.69;100.00
65754;BME280;69207;47.502;18.940;2023-05-24T02:14:21;97805.94;;;14.59;100.00
65754;BME280;69207;47.502;18.940;2023-05-24T02:15:24;97802.88;;;14.52;100.00
65754;BME280;69207;47.502;18.940;2023-05-24T02:16:32;97811.09;;;14.50;100.00
65754;BME280;69207;47.502;18.940;2023-05-24T02:17:35;97804.22;;;14.51;100.00
65754;BME280;69207;47.502;18.940;2023-05-24T02:18:38;97806.25;;;14.51;100.00
65754;BME280;69207;47.502;18.940;2023-05-24T02:19:41;97802.06;;;14.50;100.00
65754;BME280;69207;47.502;18.940;2023-05-24T02:20:44;97803.38;;;14.49;100.00
65754;BME280;69207;47.502;18.940;2023-05-24T02:21:48;97814.44;;;14.49;100.00
65754;BME280;69207;47.502;18.940;2023-05-24T02:22:51;97811.25;;;14.55;100.00
65754;BME280;69207;47.502;18.940;2023-05-24T02:23:54;97811.16;;;14.52;100.00
65754;BME280;69207;47.502;18.940;2023-05-24T02:24:58;97809.84;;;14.53;100.00
65754;BME280;69207;47.502;18.940;2023-05-24T02:26:01;97809.75;;;14.51;100.00
65754;BME280;69207;47.502;18.940;2023-05-24T02:27:05;97809.03;;;14.51;100.00
65754;BME280;69207;47.502;18.940;2023-05-24T02:28:08;97804.94;;;14.52;100.00
65754;BME280;69207;47.502;18.940;2023-05-24T02:29:11;97806.25;;;14.51;100.00
65754;BME280;69207;47.502;18.940;2023-05-24T02:30:14;97804.13;;;14.49;100.00
65754;BME280;69207;47.502;18.940;2023-05-24T02:31:17;97806.87;;;14.49;100.00
65754;BME280;69207;47.502;18.940;2023-05-24T02:32:20;97804.94;;;14.52;100.00
65754;BME280;69207;47.502;18.940;2023-05-24T02:33:23;97810.25;;;14.62;100.00
65754;BME280;69207;47.502;18.940;2023-05-24T02:34:31;97801.94;;;14.62;100.00
65754;BME280;69207;47.502;18.940;2023-05-24T02:35:34;97802.47;;;14.58;100.00
65754;BME280;69207;47.502;18.940;2023-05-24T02:36:37;97811.25;;;14.55;100.00
65754;BME280;69207;47.502;18.940;2023-05-24T02:37:40;97802.88;;;14.52;100.00
65754;BME280;69207;47.502;18.940;2023-05-24T02:38:43;97792.03;;;14.57;100.00
65754;BME280;69207;47.502;18.940;2023-05-24T02:39:46;97794.16;;;14.58;100.00
65754;BME280;69207;47.502;18.940;2023-05-24T02:40:49;97800.31;;;14.57;100.00
65754;BME280;69207;47.502;18.940;2023-05-24T02:41:53;97798.87;;;14.56;100.00
65754;BME280;69207;47.502;18.940;2023-05-24T02:42:56;97798.19;;;14.55;100.00
65754;BME280;69207;47.502;18.940;2023-05-24T02:43:59;97799.59;;;14.56;100.00
65754;BME280;69207;47.502;18.940;2023-05-24T02:45:02;97790.47;;;14.53;100.00
65754;BME280;69207;47.502;18.940;2023-05-24T02:46:05;97789.16;;;14.55;100.00
65754;BME280;69207;47.502;18.940;2023-05-24T02:47:08;97795.91;;;14.51;100.00
65754;BME280;69207;47.502;18.940;2023-05-24T02:48:11;97789.78;;;14.53;100.00
65754;BME280;69207;47.502;18.940;2023-05-24T02:49:14;97791.91;;;14.55;100.00
65754;BME280;69207;47.502;18.940;2023-05-24T02:50:17;97793.16;;;14.51;100.00
65754;BME280;69207;47.502;18.940;2023-05-24T02:51:21;97788.34;;;14.52;100.00
65754;BME280;69207;47.502;18.940;2023-05-24T02:52:24;97793.38;;;14.56;100.00
65754;BME280;69207;47.502;18.940;2023-05-24T02:53:29;97784.97;;;14.53;100.00
65754;BME280;69207;47.502;18.940;2023-05-24T02:54:33;97795.09;;;14.49;100.00
65754;BME280;69207;47.502;18.940;2023-05-24T02:55:35;97791.41;;;14.44;100.00
65754;BME280;69207;47.502;18.940;2023-05-24T02:56:39;97789.97;;;14.43;100.00
65754;BME280;69207;47.502;18.940;2023-05-24T02:57:42;97787.81;;;14.42;100.00
65754;BME280;69207;47.502;18.940;2023-05-24T02:58:45;97792.53;;;14.39;100.00
65754;BME280;69207;47.502;18.940;2023-05-24T02:59:48;97787.53;;;14.36;100.00
65754;BME280;69207;47.502;18.940;2023-05-24T03:00:51;97783.53;;;14.39;100.00
65754;BME280;69207;47.502;18.940;2023-05-24T03:01:54;97792.34;;;14.35;100.00
65754;BME280;69207;47.502;18.940;2023-05-24T03:02:58;97796.53;;;14.36;100.00
65754;BME280;69207;47.502;18.940;2023-05-24T03:04:04;97796.53;;;14.36;100.00
65754;BME280;69207;47.502;18.940;2023-05-24T03:05:08;97797.25;;;14.37;100.00
65754;BME280;69207;47.502;18.940;2023-05-24T03:06:11;97798.78;;;14.40;100.00
65754;BME280;69207;47.502;18.940;2023-05-24T03:07:15;97801.56;;;14.40;100.00
65754;BME280;69207;47.502;18.940;2023-05-24T03:08:19;97792.63;;;14.41;100.00
65754;BME280;69207;47.502;18.940;2023-05-24T03:09:22;97793.88;;;14.38;100.00
65754;BME280;69207;47.502;18.940;2023-05-24T03:10:25;97795.19;;;14.37;100.00
65754;BME280;69207;47.502;18.940;2023-05-24T03:11:28;97791.63;;;14.48;100.00
65754;BME280;69207;47.502;18.940;2023-05-24T03:12:31;97792.44;;;14.51;100.00
65754;BME280;69207;47.502;18.940;2023-05-24T03:13:34;97794.50;;;14.50;100.00
65754;BME280;69207;47.502;18.940;2023-05-24T03:14:37;97801.66;;;14.56;100.00
65754;BME280;69207;47.502;18.940;2023-05-24T03:15:40;97803.09;;;14.57;100.00
65754;BME280;69207;47.502;18.940;2023-05-24T03:16:44;97808.41;;;14.52;100.00
65754;BME280;69207;47.502;18.940;2023-05-24T03:17:47;97798.87;;;14.56;100.00
65754;BME280;69207;47.502;18.940;2023-05-24T03:18:51;97799.19;;;14.62;100.00
65754;BME280;69207;47.502;18.940;2023-05-24T03:19:57;97800.38;;;14.72;100.00
65754;BME280;69207;47.502;18.940;2023-05-24T03:21:00;97797.06;;;14.76;100.00
65754;BME280;69207;47.502;18.940;2023-05-24T03:22:03;97799.03;;;14.73;100.00
65754;BME280;69207;47.502;18.940;2023-05-24T03:23:06;97801.09;;;14.73;100.00
65754;BME280;69207;47.502;18.940;2023-05-24T03:24:11;97800.47;;;14.74;100.00
65754;BME280;69207;47.502;18.940;2023-05-24T03:25:14;97808.25;;;14.78;100.00
65754;BME280;69207;47.502;18.940;2023-05-24T03:26:17;97802.72;;;14.78;100.00
65754;BME280;69207;47.502;18.940;2023-05-24T03:27:22;97805.06;;;14.84;100.00
65754;BME280;69207;47.502;18.940;2023-05-24T03:28:25;97801.66;;;14.85;100.00
65754;BME280;69207;47.502;18.940;2023-05-24T03:29:29;97799.59;;;14.86;100.00
65754;BME280;69207;47.502;18.940;2023-05-24T03:30:32;97805.97;;;14.88;100.00
65754;BME280;69207;47.502;18.940;2023-05-24T03:31:35;97799.38;;;14.95;100.00
65754;BME280;69207;47.502;18.940;2023-05-24T03:32:38;97803.56;;;14.96;100.00
65754;BME280;69207;47.502;18.940;2023-05-24T03:33:41;97805.72;;;14.98;100.00
65754;BME280;69207;47.502;18.940;2023-05-24T03:34:44;97807.25;;;15.01;100.00
65754;BME280;69207;47.502;18.940;2023-05-24T03:35:47;97808.03;;;15.03;100.00
65754;BME280;69207;47.502;18.940;2023-05-24T03:36:51;97807.72;;;15.11;100.00
65754;BME280;69207;47.502;18.940;2023-05-24T03:37:54;97802.03;;;15.23;100.00
65754;BME280;69207;47.502;18.940;2023-05-24T03:38:57;97808.78;;;15.20;100.00
65754;BME280;69207;47.502;18.940;2023-05-24T03:40:00;97811.47;;;15.18;100.00
65754;BME280;69207;47.502;18.940;2023-05-24T03:41:06;97806.66;;;15.18;100.00
65754;BME280;69207;47.502;18.940;2023-05-24T03:42:09;97810.22;;;15.21;100.00
65754;BME280;69207;47.502;18.940;2023-05-24T03:43:12;97804.69;;;15.21;100.00
65754;BME280;69207;47.502;18.940;2023-05-24T03:44:15;97808.28;;;15.23;100.00
65754;BME280;69207;47.502;18.940;2023-05-24T03:45:18;97812.53;;;15.26;100.00
65754;BME280;69207;47.502;18.940;2023-05-24T03:46:39;97815.31;;;15.26;100.00
65754;BME280;69207;47.502;18.940;2023-05-24T03:47:43;97805.84;;;15.31;100.00
65754;BME280;69207;47.502;18.940;2023-05-24T03:48:47;97814.88;;;15.32;100.00
65754;BME280;69207;47.502;18.940;2023-05-24T03:49:50;97819.81;;;15.34;100.00
65754;BME280;69207;47.502;18.940;2023-05-24T03:50:53;97817.59;;;15.46;100.00
65754;BME280;69207;47.502;18.940;2023-05-24T03:51:56;97819.63;;;15.45;100.00
65754;BME280;69207;47.502;18.940;2023-05-24T03:52:59;97819.00;;;15.47;100.00
65754;BME280;69207;47.502;18.940;2023-05-24T03:54:02;97816.16;;;15.45;100.00
65754;BME280;69207;47.502;18.940;2023-05-24T03:55:06;97817.59;;;15.46;100.00
65754;BME280;69207;47.502;18.940;2023-05-24T03:56:09;97822.50;;;15.47;100.00
65754;BME280;69207;47.502;18.940;2023-05-24T03:57:12;97822.75;;;15.53;100.00
65754;BME280;69207;47.502;18.940;2023-05-24T03:58:15;97819.28;;;15.53;100.00
65754;BME280;69207;47.502;18.940;2023-05-24T03:59:18;97815.09;;;15.52;100.00
65754;BME280;69207;47.502;18.940;2023-05-24T04:00:21;97824.28;;;15.56;100.00
65754;BME280;69207;47.502;18.940;2023-05-24T04:01:24;97816.88;;;15.61;100.00
65754;BME280;69207;47.502;18.940;2023-05-24T04:02:36;97821.28;;;15.66;100.00
65754;BME280;69207;47.502;18.940;2023-05-24T04:03:39;97821.72;;;15.61;100.00
65754;BME280;69207;47.502;18.940;2023-05-24T04:04:43;97817.00;;;15.63;100.00
65754;BME280;69207;47.502;18.940;2023-05-24T04:05:47;97822.44;;;15.61;100.00
65754;BME280;69207;47.502;18.940;2023-05-24T04:06:50;97821.72;;;15.61;100.00
65754;BME280;69207;47.502;18.940;2023-05-24T04:07:53;97819.66;;;15.61;100.00
65754;BME280;69207;47.502;18.940;2023-05-24T04:08:57;97824.38;;;15.58;100.00
65754;BME280;69207;47.502;18.940;2023-05-24T04:10:00;97823.13;;;15.62;100.00
65754;BME280;69207;47.502;18.940;2023-05-24T04:11:04;97817.25;;;15.69;100.00
65754;BME280;69207;47.502;18.940;2023-05-24T04:12:07;97828.78;;;15.64;100.00
65754;BME280;69207;47.502;18.940;2023-05-24T04:13:10;97833.50;;;15.61;100.00
65754;BME280;69207;47.502;18.940;2023-05-24T04:14:13;97830.03;;;15.61;100.00
65754;BME280;69207;47.502;18.940;2023-05-24T04:15:16;97832.03;;;15.60;100.00
65754;BME280;69207;47.502;18.940;2023-05-24T04:16:19;97842.91;;;15.70;100.00
65754;BME280;69207;47.502;18.940;2023-05-24T04:17:22;97833.25;;;15.71;100.00
65754;BME280;69207;47.502;18.940;2023-05-24T04:18:26;97835.41;;;15.72;100.00
65754;BME280;69207;47.502;18.940;2023-05-24T04:19:29;97841.22;;;15.78;100.00
65754;BME280;69207;47.502;18.940;2023-05-24T04:20:32;97843.87;;;15.76;100.00
65754;BME280;69207;47.502;18.940;2023-05-24T04:21:36;97836.47;;;15.81;100.00
65754;BME280;69207;47.502;18.940;2023-05-24T04:22:39;97843.28;;;15.78;100.00
65754;BME280;69207;47.502;18.940;2023-05-24T04:23:42;97841.41;;;15.82;100.00
65754;BME280;69207;47.502;18.940;2023-05-24T04:24:45;97831.56;;;15.79;100.00
65754;BME280;69207;47.502;18.940;2023-05-24T04:25:48;97836.84;;;15.73;100.00
65754;BME280;69207;47.502;18.940;2023-05-24T04:26:51;97842.19;;;15.69;100.00
65754;BME280;69207;47.502;18.940;2023-05-24T04:27:54;97847.09;;;15.71;100.00
65754;BME280;69207;47.502;18.940;2023-05-24T04:28:59;97844.44;;;15.73;100.00
65754;BME280;69207;47.502;18.940;2023-05-24T04:30:02;97853.38;;;15.71;100.00
65754;BME280;69207;47.502;18.940;2023-05-24T04:31:05;97852.81;;;15.75;100.00
65754;BME280;69207;47.502;18.940;2023-05-24T04:32:09;97851.56;;;15.78;100.00
65754;BME280;69207;47.502;18.940;2023-05-24T04:33:12;97844.78;;;15.81;100.00
65754;BME280;69207;47.502;18.940;2023-05-24T04:34:15;97849.78;;;15.84;100.00
65754;BME280;69207;47.502;18.940;2023-05-24T04:35:18;97854.16;;;15.90;100.00
65754;BME280;69207;47.502;18.940;2023-05-24T04:36:21;97853.44;;;15.89;100.00
65754;BME280;69207;47.502;18.940;2023-05-24T04:37:25;97855.12;;;15.96;100.00
65754;BME280;69207;47.502;18.940;2023-05-24T04:38:29;97849.34;;;15.90;100.00
65754;BME280;69207;47.502;18.940;2023-05-24T04:39:33;97853.44;;;15.89;100.00
65754;BME280;69207;47.502;18.940;2023-05-24T04:40:37;97843.87;;;15.92;100.00
65754;BME280;69207;47.502;18.940;2023-05-24T04:41:40;97856.66;;;15.99;100.00
65754;BME280;69207;47.502;18.940;2023-05-24T04:42:43;97857.72;;;15.92;100.00
65754;BME280;69207;47.502;18.940;2023-05-24T04:43:46;97857.72;;;15.92;100.00
65754;BME280;69207;47.502;18.940;2023-05-24T04:44:49;97850.84;;;15.93;100.00
65754;BME280;69207;47.502;18.940;2023-05-24T04:45:53;97850.22;;;15.95;100.00
65754;BME280;69207;47.502;18.940;2023-05-24T04:46:56;97859.87;;;15.94;100.00
65754;BME280;69207;47.502;18.940;2023-05-24T04:47:59;97857.91;;;15.96;100.00
65754;BME280;69207;47.502;18.940;2023-05-24T04:49:02;97855.12;;;15.96;100.00
65754;BME280;69207;47.502;18.940;2023-05-24T04:50:07;97857.19;;;15.96;100.00
65754;BME280;69207;47.502;18.940;2023-05-24T04:51:10;97849.59;;;15.96;100.00
65754;BME280;69207;47.502;18.940;2023-05-24T04:52:13;97864.16;;;15.97;100.00
65754;BME280;69207;47.502;18.940;2023-05-24T04:53:16;97859.78;;;16.07;100.00
65754;BME280;69207;47.502;18.940;2023-05-24T04:54:19;97854.31;;;16.09;100.00
65754;BME280;69207;47.502;18.940;2023-05-24T04:55:22;97859.69;;;16.05;100.00
65754;BME280;69207;47.502;18.940;2023-05-24T04:56:25;97858.44;;;16.08;100.00
65754;BME280;69207;47.502;18.940;2023-05-24T04:57:28;97872.75;;;16.03;100.00
65754;BME280;69207;47.502;18.940;2023-05-24T04:58:32;97869.00;;;16.12;100.00
65754;BME280;69207;47.502;18.940;2023-05-24T04:59:35;97862.47;;;16.05;100.00
65754;BME280;69207;47.502;18.940;2023-05-24T05:00:38;97860.56;;;16.10;100.00
65754;BME280;69207;47.502;18.940;2023-05-24T05:01:41;97855.84;;;16.13;100.00
65754;BME280;69207;47.502;18.940;2023-05-24T05:02:45;97867.56;;;16.11;100.00
65754;BME280;69207;47.502;18.940;2023-05-24T05:03:48;97864.16;;;16.13;100.00
65754;BME280;69207;47.502;18.940;2023-05-24T05:04:51;97858.44;;;16.08;100.00
65754;BME280;69207;47.502;18.940;2023-05-24T05:05:55;97866.66;;;16.06;100.00
65754;BME280;69207;47.502;18.940;2023-05-24T05:06:58;97868.72;;;16.06;100.00
65754;BME280;69207;47.502;18.940;2023-05-24T05:08:01;97870.16;;;16.07;100.00
65754;BME280;69207;47.502;18.940;2023-05-24T05:09:08;97867.56;;;16.11;100.00
65754;BME280;69207;47.502;18.940;2023-05-24T05:10:12;97873.09;;;16.11;100.00
65754;BME280;69207;47.502;18.940;2023-05-24T05:11:15;97872.09;;;16.20;100.00
65754;BME280;69207;47.502;18.940;2023-05-24T05:12:18;97874.97;;;16.22;100.00
65754;BME280;69207;47.502;18.940;2023-05-24T05:13:21;97870.50;;;16.15;100.00
65754;BME280;69207;47.502;18.940;2023-05-24T05:14:24;97877.03;;;16.22;100.00
65754;BME280;69207;47.502;18.940;2023-05-24T05:15:27;97873.53;;;16.21;100.00
65754;BME280;69207;47.502;18.940;2023-05-24T05:16:31;97877.47;;;16.16;100.00
65754;BME280;69207;47.502;18.940;2023-05-24T05:17:34;97877.38;;;16.14;100.00
65754;BME280;69207;47.502;18.940;2023-05-24T05:18:37;97875.88;;;16.11;100.00
65754;BME280;69207;47.502;18.940;2023-05-24T05:19:40;97878.62;;;16.27;100.00
65754;BME280;69207;47.502;18.940;2023-05-24T05:20:43;97879.88;;;16.24;100.00
65754;BME280;69207;47.502;18.940;2023-05-24T05:21:46;97881.94;;;16.23;100.00
65754;BME280;69207;47.502;18.940;2023-05-24T05:22:50;97880.13;;;16.30;100.00
65754;BME280;69207;47.502;18.940;2023-05-24T05:23:53;97882.28;;;16.31;100.00
65754;BME280;69207;47.502;18.940;2023-05-24T05:24:56;97876.19;;;16.35;100.00
65754;BME280;69207;47.502;18.940;2023-05-24T05:25:59;97870.66;;;16.35;100.00
65754;BME280;69207;47.502;18.940;2023-05-24T05:27:02;97884.50;;;16.35;100.00
65754;BME280;69207;47.502;18.940;2023-05-24T05:28:05;97874.56;;;16.46;100.00
65754;BME280;69207;47.502;18.940;2023-05-24T05:29:08;97879.56;;;16.49;100.00
65754;BME280;69207;47.502;18.940;2023-05-24T05:30:12;97879.66;;;16.51;100.00
65754;BME280;69207;47.502;18.940;2023-05-24T05:31:15;97885.91;;;16.52;99.98
65754;BME280;69207;47.502;18.940;2023-05-24T05:32:18;97880.53;;;16.56;98.62
65754;BME280;69207;47.502;18.940;2023-05-24T05:33:22;97887.59;;;16.59;98.69
65754;BME280;69207;47.502;18.940;2023-05-24T05:34:25;97886.22;;;16.60;98.91
65754;BME280;69207;47.502;18.940;2023-05-24T05:35:28;97885.62;;;16.61;99.02
65754;BME280;69207;47.502;18.940;2023-05-24T05:36:31;97886.88;;;16.58;98.98
65754;BME280;69207;47.502;18.940;2023-05-24T05:37:34;97894.66;;;16.62;99.33
65754;BME280;69207;47.502;18.940;2023-05-24T05:38:37;97888.53;;;16.66;99.23
65754;BME280;69207;47.502;18.940;2023-05-24T05:39:40;97879.97;;;16.75;98.10
65754;BME280;69207;47.502;18.940;2023-05-24T05:40:43;97898.78;;;16.77;96.82